createdAt,value
2023-03-17T00:03:29.393Z,3.70
2023-03-17T00:08:35.986Z,3.63
2023-03-17T00:13:38.631Z,3.63
2023-03-17T00:18:40.712Z,3.60
2023-03-17T00:23:48.579Z,3.88
2023-03-17T00:28:51.171Z,3.38
2023-03-17T00:33:54.176Z,3.95
2023-03-17T00:38:55.900Z,3.45
2023-03-17T00:43:59.725Z,3.30
2023-03-17T00:49:23.441Z,2.92
2023-03-17T00:54:25.786Z,3.45
2023-03-17T00:59:38.675Z,6.28
2023-03-17T01:04:41.860Z,3.60
2023-03-17T01:09:45.438Z,3.58
2023-03-17T01:14:48.205Z,3.45
2023-03-17T01:19:50.007Z,3.35
2023-03-17T01:24:51.669Z,2.83
2023-03-17T01:29:54.315Z,2.92
2023-03-17T01:34:55.958Z,3.17
2023-03-17T01:39:58.625Z,3.50
2023-03-17T01:45:03.910Z,3.15
2023-03-17T01:50:09.912Z,3.05
2023-03-17T01:55:17.809Z,3.47
2023-03-17T02:00:23.495Z,3.53
2023-03-17T02:05:31.051Z,3.00
2023-03-17T02:10:33.512Z,3.30
2023-03-17T02:15:43.044Z,2.83
2023-03-17T02:20:47.302Z,3.97
2023-03-17T02:25:52.554Z,3.13
2023-03-17T02:30:54.191Z,2.78
2023-03-17T02:35:57.117Z,3.13
2023-03-17T02:40:58.851Z,2.80
2023-03-17T02:46:01.309Z,3.20
2023-03-17T02:51:03.453Z,3.63
2023-03-17T02:56:05.585Z,3.85
2023-03-17T03:01:07.299Z,3.20
2023-03-17T03:06:09.130Z,3.58
2023-03-17T03:11:10.960Z,2.97
2023-03-17T03:16:12.814Z,3.33
2023-03-17T03:21:14.580Z,3.53
2023-03-17T03:26:16.489Z,3.03
2023-03-17T03:31:18.138Z,3.30
2023-03-17T03:36:21.703Z,3.00
2023-03-17T03:41:23.294Z,3.40
2023-03-17T03:46:26.688Z,3.15
2023-03-17T03:51:28.299Z,3.10
2023-03-17T03:56:29.888Z,2.85
2023-03-17T04:01:31.575Z,2.92
2023-03-17T04:06:33.208Z,3.33
2023-03-17T04:11:34.950Z,3.10
2023-03-17T04:16:36.532Z,3.47
2023-03-17T04:21:38.264Z,3.60
2023-03-17T04:26:39.871Z,3.58
2023-03-17T04:31:42.559Z,3.28
2023-03-17T04:36:46.116Z,3.47
2023-03-17T04:41:47.761Z,3.38
2023-03-17T04:46:49.442Z,3.00
2023-03-17T04:51:51.069Z,3.78
2023-03-17T04:56:53.089Z,3.10
2023-03-17T05:01:54.698Z,3.00
2023-03-17T05:06:58.216Z,3.03
2023-03-17T05:11:59.794Z,3.50
2023-03-17T05:17:01.529Z,3.08
2023-03-17T05:22:03.237Z,3.13
2023-03-17T05:27:04.959Z,2.92
2023-03-17T05:32:06.704Z,3.17
2023-03-17T05:37:08.713Z,3.28
2023-03-17T05:42:10.387Z,3.40
2023-03-17T05:47:12.106Z,2.70
2023-03-17T05:52:14.240Z,3.33
2023-03-17T05:57:16.377Z,3.28
2023-03-17T06:02:18.085Z,3.42
2023-03-17T06:07:20.619Z,3.05
2023-03-17T06:12:22.288Z,3.08
2023-03-17T06:17:23.970Z,2.95
2023-03-17T06:22:26.058Z,3.10
2023-03-17T06:27:27.686Z,2.97
2023-03-17T06:32:30.719Z,3.20
2023-03-17T06:37:32.361Z,3.28
2023-03-17T06:42:34.083Z,3.20
2023-03-17T06:47:37.240Z,3.20
2023-03-17T06:52:39.659Z,3.40
2023-03-17T06:57:41.833Z,3.10
2023-03-17T07:02:43.528Z,3.72
2023-03-17T07:07:46.076Z,3.72
2023-03-17T07:12:47.998Z,3.13
2023-03-17T07:17:49.643Z,3.28
2023-03-17T07:22:51.765Z,3.38
2023-03-17T07:27:53.506Z,5.32
2023-03-17T07:32:55.288Z,3.33
2023-03-17T07:37:57.381Z,2.90
2023-03-17T07:42:59.546Z,3.40
2023-03-17T07:48:01.355Z,3.38
2023-03-17T07:53:03.961Z,3.80
2023-03-17T07:58:06.342Z,3.25
2023-03-17T08:03:10.766Z,3.40
2023-03-17T08:08:12.829Z,3.47
2023-03-17T08:13:14.825Z,4.22
2023-03-17T08:18:16.482Z,3.17
2023-03-17T08:23:19.553Z,3.50
2023-03-17T08:28:21.149Z,3.95
2023-03-17T08:33:22.841Z,3.70
2023-03-17T08:38:24.454Z,4.25
2023-03-17T08:43:26.539Z,4.10
2023-03-17T08:48:28.548Z,3.42
2023-03-17T08:53:30.272Z,3.50
2023-03-17T08:58:31.982Z,3.90
2023-03-17T09:03:34.265Z,3.95
2023-03-17T09:08:38.996Z,4.57
2023-03-17T09:13:41.463Z,4.88
2023-03-17T09:18:43.670Z,4.50
2023-03-17T09:23:45.465Z,4.55
2023-03-17T09:28:47.451Z,5.00
2023-03-17T09:33:49.154Z,4.95
2023-03-17T09:38:51.265Z,5.13
2023-03-17T09:43:58.748Z,6.13
2023-03-17T09:49:09.377Z,4.88
2023-03-17T09:54:16.002Z,5.55
2023-03-17T09:59:33.916Z,5.22
2023-03-17T10:04:37.188Z,5.70
2023-03-17T10:09:51.403Z,6.20
2023-03-17T10:15:11.462Z,5.75
2023-03-17T10:20:17.339Z,5.80
2023-03-17T10:25:26.309Z,6.43
2023-03-17T10:30:31.603Z,7.75
2023-03-17T10:35:36.360Z,6.57
2023-03-17T10:40:38.158Z,5.85
2023-03-17T10:45:54.495Z,5.45
2023-03-17T10:50:58.780Z,5.72
2023-03-17T10:56:11.695Z,6.35
2023-03-17T11:01:27.895Z,6.32
2023-03-17T11:06:51.486Z,7.32
2023-03-17T11:12:02.991Z,6.00
2023-03-17T11:17:17.666Z,6.00
2023-03-17T11:22:29.191Z,6.55
2023-03-17T11:27:34.306Z,6.45
2023-03-17T11:32:46.684Z,6.57
2023-03-17T11:38:22.693Z,6.85
2023-03-17T11:43:30.324Z,6.80
2023-03-17T11:49:00.696Z,6.72
2023-03-17T11:54:09.737Z,6.05
2023-03-17T11:59:20.619Z,6.78
2023-03-17T12:04:53.156Z,6.22
2023-03-17T12:10:08.151Z,6.68
2023-03-17T12:15:22.330Z,7.20
2023-03-17T12:20:35.506Z,6.95
2023-03-17T12:25:50.452Z,7.47
2023-03-17T12:30:52.872Z,7.93
2023-03-17T12:35:54.551Z,7.15
2023-03-17T12:41:21.949Z,6.97
2023-03-17T12:46:53.157Z,7.32
2023-03-17T12:52:01.528Z,7.07
2023-03-17T12:57:14.649Z,6.55
2023-03-17T13:02:23.186Z,6.80
2023-03-17T13:07:41.419Z,7.07
2023-03-17T13:12:43.585Z,6.55
2023-03-17T13:17:45.441Z,8.13
2023-03-17T13:23:11.657Z,8.60
2023-03-17T13:28:13.339Z,7.70
2023-03-17T13:33:25.866Z,6.85
2023-03-17T13:39:18.967Z,7.57
2023-03-17T13:44:32.619Z,8.38
2023-03-17T13:49:36.683Z,6.88
2023-03-17T13:54:48.512Z,7.47
2023-03-17T14:00:16.181Z,9.80
2023-03-17T14:05:27.164Z,7.30
2023-03-17T14:10:31.794Z,7.40
2023-03-17T14:15:49.537Z,6.47
2023-03-17T14:20:57.472Z,7.03
2023-03-17T14:26:00.096Z,7.40
2023-03-17T14:31:04.818Z,6.80
2023-03-17T14:36:10.803Z,8.27
2023-03-17T14:41:13.839Z,7.20
2023-03-17T14:46:30.928Z,8.57
2023-03-17T14:51:38.059Z,7.65
2023-03-17T14:57:00.024Z,7.05
2023-03-17T15:02:15.950Z,7.05
2023-03-17T15:07:35.539Z,7.63
2023-03-17T15:12:37.677Z,7.40
2023-03-17T15:17:39.328Z,6.82
2023-03-17T15:23:03.031Z,8.00
2023-03-17T15:28:15.517Z,7.40
2023-03-17T15:33:38.957Z,7.03
2023-03-17T15:38:40.613Z,7.07
2023-03-17T15:43:42.333Z,6.90
2023-03-17T15:48:43.904Z,6.93
2023-03-17T15:53:47.433Z,7.47
2023-03-17T15:58:52.486Z,7.72
2023-03-17T16:03:54.324Z,7.85
2023-03-17T16:08:56.108Z,7.63
2023-03-17T16:13:59.695Z,7.88
2023-03-17T16:19:02.137Z,7.15
2023-03-17T16:24:06.171Z,7.30
2023-03-17T16:29:14.406Z,6.75
2023-03-17T16:34:17.187Z,7.15
2023-03-17T16:39:23.804Z,6.47
2023-03-17T16:44:25.934Z,7.65
2023-03-17T16:49:27.677Z,7.55
2023-03-17T16:54:33.194Z,7.72
2023-03-17T16:59:34.883Z,8.20
2023-03-17T17:04:38.494Z,8.48
2023-03-17T17:09:40.122Z,8.80
2023-03-17T17:14:41.729Z,8.18
2023-03-17T17:19:43.369Z,8.10
2023-03-17T17:24:45.137Z,7.93
2023-03-17T17:29:46.778Z,8.02
2023-03-17T17:34:48.406Z,7.25
2023-03-17T17:39:51.612Z,8.45
2023-03-17T17:44:53.294Z,8.57
2023-03-17T17:49:54.980Z,9.57
2023-03-17T17:54:57.301Z,8.63
2023-03-17T17:59:59.068Z,8.35
2023-03-17T18:05:01.208Z,8.48
2023-03-17T18:10:04.316Z,12.52
2023-03-17T18:15:07.124Z,12.95
2023-03-17T18:20:12.438Z,18.60
2023-03-17T18:25:15.486Z,16.63
2023-03-17T18:30:26.201Z,14.98
2023-03-17T18:35:28.993Z,18.45
2023-03-17T18:40:31.076Z,15.70
2023-03-17T18:45:32.768Z,14.75
2023-03-17T18:50:34.415Z,12.40
2023-03-17T18:55:36.243Z,13.95
2023-03-17T19:00:38.533Z,9.23
2023-03-17T19:05:40.986Z,10.27
2023-03-17T19:10:44.304Z,10.93
2023-03-17T19:15:47.118Z,9.88
2023-03-17T19:20:48.995Z,11.18
2023-03-17T19:25:51.220Z,11.40
2023-03-17T19:30:53.211Z,12.32
2023-03-17T19:35:58.559Z,12.90
2023-03-17T19:41:00.344Z,12.95
2023-03-17T19:46:02.144Z,12.93
2023-03-17T19:51:04.470Z,12.40
2023-03-17T19:56:06.871Z,12.55
2023-03-17T20:01:08.903Z,20.17
2023-03-17T20:06:12.288Z,19.50
2023-03-17T20:11:13.991Z,22.25
2023-03-17T20:16:17.335Z,11.52
2023-03-17T20:21:19.246Z,11.98
2023-03-17T20:26:21.207Z,14.93
2023-03-17T20:31:23.543Z,17.27
2023-03-17T20:36:25.993Z,17.08
2023-03-17T20:41:27.964Z,19.30
2023-03-17T20:46:29.723Z,13.70
2023-03-17T20:51:32.373Z,12.10
2023-03-17T20:56:34.171Z,15.68
2023-03-17T21:01:38.501Z,11.45
2023-03-17T21:06:41.471Z,10.70
2023-03-17T21:11:43.127Z,11.60
2023-03-17T21:16:47.172Z,12.38
2023-03-17T21:21:48.967Z,11.88
2023-03-17T21:26:50.707Z,12.70
2023-03-17T21:31:52.753Z,13.00
2023-03-17T21:36:54.788Z,12.48
2023-03-17T21:41:57.576Z,12.70
2023-03-17T21:47:02.576Z,12.60
2023-03-17T21:52:04.580Z,11.32
2023-03-17T21:57:06.311Z,12.90
2023-03-17T22:02:11.590Z,12.30
2023-03-17T22:07:13.828Z,12.38
2023-03-17T22:12:15.676Z,11.43
2023-03-17T22:17:17.489Z,11.27
2023-03-17T22:22:23.692Z,11.18
2023-03-17T22:27:25.383Z,10.82
2023-03-17T22:32:27.016Z,11.25
2023-03-17T22:37:28.753Z,9.73
2023-03-17T22:42:31.133Z,10.93
2023-03-17T22:47:32.750Z,9.93
2023-03-17T22:52:34.773Z,11.20
2023-03-17T22:57:37.100Z,9.75
2023-03-17T23:02:38.728Z,9.80
2023-03-17T23:07:50.437Z,10.40
2023-03-17T23:12:52.667Z,10.90
2023-03-17T23:17:54.247Z,9.77
2023-03-17T23:22:56.105Z,11.18
2023-03-17T23:27:57.682Z,9.75
2023-03-17T23:32:59.505Z,11.55
2023-03-17T23:38:02.799Z,10.85
2023-03-17T23:43:05.610Z,11.23
2023-03-17T23:48:10.009Z,11.27
2023-03-17T23:53:11.721Z,11.90
2023-03-17T23:58:13.957Z,12.27
